createdAt,value
2017-08-06T00:01:25.442Z,15.10
2017-08-06T00:03:53.904Z,15.00
2017-08-06T00:06:23.110Z,15.00
2017-08-06T00:08:51.541Z,15.00
2017-08-06T00:11:19.961Z,15.00
2017-08-06T00:13:49.192Z,15.00
2017-08-06T00:16:18.011Z,15.00
2017-08-06T00:18:46.493Z,15.00
2017-08-06T00:21:14.912Z,15.00
2017-08-06T00:23:43.334Z,15.10
2017-08-06T00:26:11.807Z,15.10
2017-08-06T00:28:40.236Z,15.00
2017-08-06T00:31:08.665Z,14.90
2017-08-06T00:33:37.129Z,14.80
2017-08-06T00:36:06.001Z,14.80
2017-08-06T00:38:35.212Z,14.80
2017-08-06T00:41:03.691Z,14.80
2017-08-06T00:43:32.506Z,14.90
2017-08-06T00:46:01.409Z,14.90
2017-08-06T00:48:30.309Z,14.90
2017-08-06T00:50:58.779Z,14.90
2017-08-06T00:53:27.217Z,14.80
2017-08-06T00:55:55.729Z,14.70
2017-08-06T00:58:25.261Z,14.50
2017-08-06T01:00:53.695Z,14.40
2017-08-06T01:03:22.969Z,14.30
2017-08-06T01:05:51.393Z,14.30
2017-08-06T01:08:19.880Z,14.30
2017-08-06T01:10:48.303Z,14.30
2017-08-06T01:13:17.129Z,14.30
2017-08-06T01:15:45.605Z,14.40
2017-08-06T01:18:14.039Z,14.50
2017-08-06T01:20:42.486Z,14.60
2017-08-06T01:23:10.967Z,14.60
2017-08-06T01:25:39.787Z,14.60
2017-08-06T01:28:08.610Z,14.60
2017-08-06T01:30:36.759Z,14.70
2017-08-06T01:33:05.574Z,14.70
2017-08-06T01:35:34.021Z,14.70
2017-08-06T01:38:02.484Z,14.70
2017-08-06T01:40:30.920Z,14.60
2017-08-06T01:42:59.462Z,14.50
2017-08-06T01:45:27.891Z,14.50
2017-08-06T01:47:56.320Z,14.40
2017-08-06T01:50:24.786Z,14.40
2017-08-06T01:52:53.235Z,14.50
2017-08-06T01:55:21.664Z,14.50
2017-08-06T01:57:50.143Z,14.50
2017-08-06T02:00:17.917Z,14.80
2017-08-06T02:02:46.341Z,14.80
2017-08-06T02:05:14.792Z,14.90
2017-08-06T02:07:43.980Z,15.00
2017-08-06T02:10:12.459Z,15.00
2017-08-06T02:12:40.898Z,15.10
2017-08-06T02:15:09.369Z,15.00
2017-08-06T02:17:37.787Z,14.90
2017-08-06T02:20:06.279Z,14.80
2017-08-06T02:22:35.498Z,14.70
2017-08-06T02:25:04.707Z,14.70
2017-08-06T02:27:33.136Z,14.60
2017-08-06T02:30:01.632Z,14.60
2017-08-06T02:32:29.791Z,14.60
2017-08-06T02:34:58.216Z,14.60
2017-08-06T02:37:26.682Z,14.60
2017-08-06T02:39:55.115Z,14.50
2017-08-06T02:42:23.642Z,14.50
2017-08-06T02:44:52.459Z,14.40
2017-08-06T02:47:20.899Z,14.30
2017-08-06T02:49:50.127Z,14.30
2017-08-06T02:52:19.316Z,14.30
2017-08-06T02:54:47.797Z,14.40
2017-08-06T02:57:16.997Z,14.50
2017-08-06T02:59:45.858Z,14.60
2017-08-06T03:02:14.353Z,14.70
2017-08-06T03:04:43.228Z,14.70
2017-08-06T03:07:11.692Z,14.70
2017-08-06T03:09:40.131Z,14.70
2017-08-06T03:12:08.623Z,14.60
2017-08-06T03:14:37.068Z,14.40
2017-08-06T03:17:05.492Z,14.50
2017-08-06T03:19:33.958Z,14.40
2017-08-06T03:22:02.447Z,14.30
2017-08-06T03:24:30.881Z,14.20
2017-08-06T03:26:59.708Z,14.10
2017-08-06T03:29:28.196Z,14.00
2017-08-06T03:31:57.032Z,14.00
2017-08-06T03:34:25.639Z,14.00
2017-08-06T03:36:54.892Z,14.00
2017-08-06T03:39:23.727Z,14.00
2017-08-06T03:41:52.183Z,14.00
2017-08-06T03:44:20.851Z,14.00
2017-08-06T03:46:49.340Z,14.20
2017-08-06T03:49:18.156Z,14.20
2017-08-06T03:51:46.633Z,14.20
2017-08-06T03:54:15.068Z,14.30
2017-08-06T03:56:43.510Z,14.30
2017-08-06T03:59:11.989Z,14.20
2017-08-06T04:01:40.405Z,14.20
2017-08-06T04:04:08.829Z,14.20
2017-08-06T04:06:38.220Z,14.30
2017-08-06T04:09:07.460Z,14.30
2017-08-06T04:11:36.287Z,14.30
2017-08-06T04:14:04.759Z,14.30
2017-08-06T04:16:33.839Z,14.30
2017-08-06T04:19:02.266Z,14.20
2017-08-06T04:21:30.742Z,14.20
2017-08-06T04:23:59.170Z,14.20
2017-08-06T04:26:27.598Z,14.20
2017-08-06T04:28:56.062Z,14.20
2017-08-06T04:31:24.527Z,14.20
2017-08-06T04:33:52.950Z,14.20
2017-08-06T04:36:21.429Z,14.20
2017-08-06T04:38:49.885Z,14.40
2017-08-06T04:41:18.329Z,14.40
2017-08-06T04:43:46.808Z,14.40
2017-08-06T04:46:16.041Z,14.40
2017-08-06T04:48:44.507Z,14.50
2017-08-06T04:51:12.981Z,14.70
2017-08-06T04:53:41.404Z,14.90
2017-08-06T04:56:09.823Z,15.20
2017-08-06T04:58:38.399Z,15.30
2017-08-06T05:01:06.825Z,15.50
2017-08-06T05:03:36.230Z,15.60
2017-08-06T05:06:04.655Z,15.60
2017-08-06T05:08:33.145Z,15.60
2017-08-06T05:11:01.623Z,15.50
2017-08-06T05:13:30.043Z,15.40
2017-08-06T05:15:58.463Z,15.40
2017-08-06T05:18:26.915Z,15.30
2017-08-06T05:20:55.345Z,15.20
2017-08-06T05:23:23.805Z,15.30
2017-08-06T05:25:52.236Z,15.50
2017-08-06T05:28:20.720Z,15.60
2017-08-06T05:30:49.145Z,15.90
2017-08-06T05:33:18.344Z,16.00
2017-08-06T05:35:46.807Z,16.20
2017-08-06T05:38:15.223Z,16.30
2017-08-06T05:40:43.707Z,16.30
2017-08-06T05:43:12.130Z,16.30
2017-08-06T05:45:40.559Z,16.50
2017-08-06T05:48:09.024Z,16.50
2017-08-06T05:50:37.493Z,16.50
2017-08-06T05:53:06.339Z,16.60
2017-08-06T05:55:34.812Z,16.30
2017-08-06T05:58:03.245Z,16.20
2017-08-06T06:00:31.684Z,16.20
2017-08-06T06:03:00.155Z,16.30
2017-08-06T06:05:28.633Z,16.30
2017-08-06T06:07:57.488Z,16.20
2017-08-06T06:10:25.965Z,16.20
2017-08-06T06:12:54.385Z,16.40
2017-08-06T06:15:23.580Z,16.80
2017-08-06T06:17:52.035Z,17.40
2017-08-06T06:20:20.859Z,17.70
2017-08-06T06:22:49.318Z,18.00
2017-08-06T06:25:18.136Z,18.20
2017-08-06T06:27:46.601Z,18.10
2017-08-06T06:30:15.481Z,18.20
2017-08-06T06:32:43.933Z,18.40
2017-08-06T06:35:12.373Z,18.60
2017-08-06T06:37:40.849Z,18.60
2017-08-06T06:40:09.674Z,18.20
2017-08-06T06:42:38.539Z,18.00
2017-08-06T06:45:07.011Z,18.00
2017-08-06T06:47:35.431Z,18.20
2017-08-06T06:50:03.971Z,18.40
2017-08-06T06:52:32.425Z,18.90
2017-08-06T06:55:01.625Z,18.80
2017-08-06T06:57:30.489Z,18.60
2017-08-06T06:59:58.960Z,18.60
2017-08-06T07:02:27.445Z,18.40
2017-08-06T07:04:55.867Z,18.40
2017-08-06T07:07:24.422Z,18.60
2017-08-06T07:09:52.869Z,18.70
2017-08-06T07:12:21.292Z,18.40
2017-08-06T07:14:49.753Z,18.50
2017-08-06T07:17:18.187Z,18.80
2017-08-06T07:19:46.657Z,19.10
2017-08-06T07:22:15.918Z,19.60
2017-08-06T07:24:44.346Z,19.40
2017-08-06T07:27:12.791Z,19.20
2017-08-06T07:29:41.260Z,19.30
2017-08-06T07:32:09.695Z,19.10
2017-08-06T07:34:38.513Z,19.10
2017-08-06T07:37:06.971Z,19.00
2017-08-06T07:39:35.406Z,18.90
2017-08-06T07:42:03.871Z,19.20
2017-08-06T07:44:32.299Z,19.60
2017-08-06T07:47:01.588Z,20.00
2017-08-06T07:49:30.413Z,20.70
2017-08-06T07:51:58.842Z,21.10
2017-08-06T07:54:27.295Z,21.50
2017-08-06T07:56:56.153Z,21.30
2017-08-06T07:59:24.981Z,21.20
2017-08-06T08:01:53.464Z,21.20
2017-08-06T08:04:21.916Z,21.60
2017-08-06T08:06:50.343Z,22.30
2017-08-06T08:09:19.204Z,23.10
2017-08-06T08:11:47.651Z,24.20
2017-08-06T08:14:16.509Z,26.40
2017-08-06T08:16:45.036Z,27.20
2017-08-06T08:19:13.460Z,28.90
2017-08-06T08:21:42.945Z,31.80
2017-08-06T08:24:12.547Z,32.00
2017-08-06T08:26:40.964Z,30.30
2017-08-06T08:29:10.181Z,28.10
2017-08-06T08:31:39.048Z,27.50
2017-08-06T08:34:07.481Z,27.50
2017-08-06T08:36:35.906Z,26.00
2017-08-06T08:39:03.902Z,25.60
2017-08-06T08:41:33.097Z,26.80
2017-08-06T08:44:01.925Z,26.80
2017-08-06T08:46:31.391Z,26.70
2017-08-06T08:49:00.593Z,26.70
2017-08-06T08:51:29.119Z,29.60
2017-08-06T08:53:57.585Z,30.20
2017-08-06T08:56:26.030Z,28.20
2017-08-06T08:58:54.496Z,27.40
2017-08-06T09:01:23.310Z,27.70
2017-08-06T09:03:51.729Z,28.50
2017-08-06T09:06:20.199Z,27.70
2017-08-06T09:08:49.392Z,27.30
2017-08-06T09:11:17.851Z,28.60
2017-08-06T09:13:46.281Z,31.00
2017-08-06T09:16:18.379Z,32.40
2017-08-06T09:18:47.233Z,31.50
2017-08-06T09:21:16.069Z,30.30
2017-08-06T09:23:45.396Z,29.30
2017-08-06T09:26:13.869Z,29.00
2017-08-06T09:28:42.715Z,27.90
2017-08-06T09:31:11.910Z,27.40
2017-08-06T09:33:40.368Z,27.30
2017-08-06T09:36:09.227Z,27.30
2017-08-06T09:38:37.716Z,29.60
2017-08-06T09:41:06.140Z,30.60
2017-08-06T09:43:34.973Z,28.40
2017-08-06T09:46:05.895Z,27.70
2017-08-06T09:48:34.325Z,27.10
2017-08-06T09:51:03.856Z,27.60
2017-08-06T09:53:32.287Z,26.70
2017-08-06T09:56:00.747Z,26.10
2017-08-06T09:58:29.220Z,25.40
2017-08-06T10:00:57.639Z,25.80
2017-08-06T10:03:26.058Z,25.10
2017-08-06T10:05:55.189Z,24.40
2017-08-06T10:08:23.612Z,24.20
2017-08-06T10:10:52.437Z,24.10
2017-08-06T10:13:21.284Z,24.20
2017-08-06T10:15:49.713Z,24.50
2017-08-06T10:18:18.556Z,23.90
2017-08-06T10:20:46.981Z,24.00
2017-08-06T10:23:15.856Z,24.80
2017-08-06T10:25:45.124Z,25.00
2017-08-06T10:28:13.549Z,25.40
2017-08-06T10:30:41.976Z,26.10
2017-08-06T10:33:10.841Z,26.20
2017-08-06T10:35:39.662Z,25.40
2017-08-06T10:38:08.912Z,25.40
2017-08-06T10:40:37.808Z,25.80
2017-08-06T10:43:06.230Z,25.80
2017-08-06T10:45:34.710Z,25.50
2017-08-06T10:48:02.848Z,25.70
2017-08-06T10:50:31.689Z,26.30
2017-08-06T10:53:00.106Z,26.90
2017-08-06T10:55:28.972Z,27.30
2017-08-06T10:57:57.823Z,26.50
2017-08-06T11:00:26.301Z,26.30
2017-08-06T11:02:55.179Z,27.50
2017-08-06T11:05:23.615Z,28.50
2017-08-06T11:07:52.086Z,28.90
2017-08-06T11:10:20.917Z,29.10
2017-08-06T11:12:49.392Z,29.10
2017-08-06T11:15:17.854Z,28.80
2017-08-06T11:17:46.285Z,28.40
2017-08-06T11:20:15.154Z,27.90
2017-08-06T11:22:43.600Z,27.60
2017-08-06T11:25:12.102Z,27.90
2017-08-06T11:27:40.523Z,28.00
2017-08-06T11:30:08.951Z,28.20
2017-08-06T11:32:37.808Z,27.30
2017-08-06T11:35:06.285Z,26.50
2017-08-06T11:37:34.697Z,27.30
2017-08-06T11:40:03.578Z,27.20
2017-08-06T11:42:32.772Z,27.20
2017-08-06T11:45:01.203Z,27.70
2017-08-06T11:47:30.054Z,27.90
2017-08-06T11:49:59.669Z,27.40
2017-08-06T11:52:28.089Z,26.50
2017-08-06T11:54:56.910Z,27.40
2017-08-06T11:57:27.017Z,28.20
2017-08-06T11:59:56.573Z,28.80
2017-08-06T12:02:25.406Z,29.10
2017-08-06T12:04:54.402Z,28.80
2017-08-06T12:07:23.231Z,28.90
2017-08-06T12:09:51.670Z,29.10
2017-08-06T12:12:21.272Z,28.80
2017-08-06T12:14:50.119Z,28.20
2017-08-06T12:17:19.311Z,28.20
2017-08-06T12:19:47.798Z,28.40
2017-08-06T12:24:46.092Z,27.30
2017-08-06T12:27:14.673Z,27.60
2017-08-06T12:29:43.866Z,28.80
2017-08-06T12:32:12.304Z,29.00
2017-08-06T12:34:41.361Z,29.80
2017-08-06T12:37:09.774Z,30.20
2017-08-06T12:39:38.411Z,31.00
2017-08-06T12:42:06.947Z,29.00
2017-08-06T12:44:36.140Z,29.10
2017-08-06T12:47:05.345Z,30.90
2017-08-06T12:49:34.612Z,29.30
2017-08-06T12:52:03.429Z,29.90
2017-08-06T12:54:31.852Z,30.70
2017-08-06T12:57:00.338Z,31.00
2017-08-06T12:59:28.767Z,30.50
2017-08-06T13:01:57.201Z,30.70
2017-08-06T13:04:25.692Z,32.80
2017-08-06T13:06:54.119Z,34.10
2017-08-06T13:09:22.556Z,36.60
2017-08-06T13:11:51.028Z,38.90
2017-08-06T13:14:19.460Z,36.10
2017-08-06T13:16:48.289Z,34.00
2017-08-06T13:19:16.817Z,33.60
2017-08-06T13:21:45.367Z,35.00
2017-08-06T13:24:14.195Z,37.60
2017-08-06T13:26:43.426Z,37.00
2017-08-06T13:29:12.299Z,35.60
2017-08-06T13:31:41.123Z,34.50
2017-08-06T13:34:09.552Z,33.00
2017-08-06T13:36:38.396Z,31.40
2017-08-06T13:39:06.822Z,31.20
2017-08-06T13:41:35.695Z,31.80
2017-08-06T13:44:04.512Z,33.70
2017-08-06T13:46:32.944Z,33.50
2017-08-06T13:49:01.440Z,34.20
2017-08-06T13:51:30.287Z,34.20
2017-08-06T13:53:58.715Z,33.40
2017-08-06T13:56:27.193Z,32.90
2017-08-06T13:58:55.668Z,33.60
2017-08-06T14:01:24.855Z,34.00
2017-08-06T14:03:53.322Z,32.40
2017-08-06T14:06:21.742Z,33.10
2017-08-06T14:08:50.188Z,32.50
2017-08-06T14:11:18.675Z,31.80
2017-08-06T14:13:47.874Z,32.50
2017-08-06T14:16:17.077Z,32.20
2017-08-06T14:18:45.524Z,31.70
2017-08-06T14:21:13.984Z,32.40
2017-08-06T14:23:42.846Z,31.50
2017-08-06T14:26:11.712Z,31.80
2017-08-06T14:28:40.208Z,32.70
2017-08-06T14:31:09.395Z,32.60
2017-08-06T14:33:37.823Z,31.00
2017-08-06T14:36:06.316Z,30.20
2017-08-06T14:38:35.520Z,29.10
2017-08-06T14:41:03.952Z,27.80
2017-08-06T14:43:33.936Z,26.50
2017-08-06T14:46:02.380Z,26.80
2017-08-06T14:48:31.262Z,28.90
2017-08-06T14:51:00.098Z,29.90
2017-08-06T14:53:28.926Z,30.60
2017-08-06T14:55:57.775Z,32.40
2017-08-06T14:58:26.264Z,32.50
2017-08-06T15:00:55.097Z,33.20
2017-08-06T15:03:23.936Z,33.60
2017-08-06T15:05:53.178Z,35.30
2017-08-06T15:08:22.395Z,34.80
2017-08-06T15:10:51.251Z,33.80
2017-08-06T15:13:20.083Z,34.80
2017-08-06T15:15:48.551Z,34.60
2017-08-06T15:18:17.371Z,35.70
2017-08-06T15:20:46.237Z,34.80
2017-08-06T15:23:15.438Z,34.00
2017-08-06T15:25:44.261Z,34.80
2017-08-06T15:28:12.760Z,34.60
2017-08-06T15:30:41.204Z,34.70
2017-08-06T15:33:10.766Z,34.50
2017-08-06T15:35:39.256Z,33.00
2017-08-06T15:38:07.691Z,32.80
2017-08-06T15:40:36.145Z,32.10
2017-08-06T15:43:04.604Z,31.20
2017-08-06T15:45:34.158Z,29.40
2017-08-06T15:48:02.242Z,27.20
2017-08-06T15:50:31.839Z,27.00
2017-08-06T15:53:00.660Z,28.10
2017-08-06T15:55:29.526Z,28.60
2017-08-06T15:57:58.713Z,29.30
2017-08-06T16:00:27.201Z,28.40
2017-08-06T16:02:56.428Z,28.20
2017-08-06T16:05:25.630Z,29.20
2017-08-06T16:07:54.481Z,30.20
2017-08-06T16:10:24.061Z,30.40
2017-08-06T16:12:52.491Z,29.60
2017-08-06T16:15:21.355Z,29.40
2017-08-06T16:17:50.761Z,30.20
2017-08-06T16:20:19.279Z,31.20
2017-08-06T16:22:47.712Z,30.80
2017-08-06T16:25:16.537Z,31.30
2017-08-06T16:27:45.768Z,30.40
2017-08-06T16:30:14.985Z,29.80
2017-08-06T16:32:43.480Z,29.50
2017-08-06T16:35:12.310Z,28.70
2017-08-06T16:37:40.744Z,28.30
2017-08-06T16:40:09.987Z,28.30
2017-08-06T16:42:38.802Z,27.80
2017-08-06T16:45:07.297Z,27.60
2017-08-06T16:47:36.167Z,27.90
2017-08-06T16:50:04.642Z,28.10
2017-08-06T16:52:33.856Z,28.10
2017-08-06T16:55:02.320Z,27.60
2017-08-06T16:57:30.751Z,27.60
2017-08-06T16:59:59.178Z,28.10
2017-08-06T17:02:27.643Z,27.60
2017-08-06T17:04:56.073Z,26.60
2017-08-06T17:07:24.538Z,26.30
2017-08-06T17:09:53.757Z,26.30
2017-08-06T17:12:24.449Z,26.10
2017-08-06T17:14:53.320Z,25.60
2017-08-06T17:17:21.752Z,25.40
2017-08-06T17:19:50.174Z,25.30
2017-08-06T17:22:18.703Z,25.20
2017-08-06T17:24:47.133Z,25.60
2017-08-06T17:27:15.954Z,25.70
2017-08-06T17:29:45.181Z,25.40
2017-08-06T17:32:14.742Z,25.00
2017-08-06T17:34:43.975Z,25.00
2017-08-06T17:37:12.817Z,25.00
2017-08-06T17:39:41.328Z,24.60
2017-08-06T17:42:09.775Z,24.40
2017-08-06T17:44:38.593Z,23.90
2017-08-06T17:49:36.099Z,22.70
2017-08-06T17:52:05.335Z,22.00
2017-08-06T17:54:34.068Z,21.60
2017-08-06T17:57:02.540Z,21.30
2017-08-06T17:59:30.970Z,21.00
2017-08-06T18:02:00.153Z,20.80
2017-08-06T18:04:28.625Z,20.50
2017-08-06T18:06:57.475Z,20.30
2017-08-06T18:09:25.940Z,20.20
2017-08-06T18:11:55.138Z,20.00
2017-08-06T18:14:23.619Z,19.80
2017-08-06T18:16:52.048Z,19.60
2017-08-06T18:19:20.472Z,19.40
2017-08-06T18:21:48.931Z,19.30
2017-08-06T18:24:18.132Z,19.10
2017-08-06T18:26:47.008Z,18.60
2017-08-06T18:29:15.838Z,18.30
2017-08-06T18:31:44.270Z,18.00
2017-08-06T18:34:13.867Z,17.80
2017-08-06T18:36:42.362Z,17.60
2017-08-06T18:39:11.198Z,17.50
2017-08-06T18:41:39.626Z,17.40
2017-08-06T18:44:08.847Z,17.20
2017-08-06T18:46:38.437Z,17.10
2017-08-06T18:49:08.065Z,16.90
2017-08-06T18:51:36.887Z,16.90
2017-08-06T18:54:05.719Z,17.10
2017-08-06T18:56:34.648Z,17.10
2017-08-06T18:59:03.499Z,16.90
2017-08-06T19:01:32.760Z,16.80
2017-08-06T19:04:01.176Z,16.40
2017-08-06T19:06:30.131Z,16.10
2017-08-06T19:08:59.380Z,16.00
2017-08-06T19:11:28.223Z,15.90
2017-08-06T19:13:56.723Z,15.90
2017-08-06T19:16:25.641Z,15.60
2017-08-06T19:18:54.942Z,15.50
2017-08-06T19:21:24.365Z,15.40
2017-08-06T19:23:53.583Z,15.30
2017-08-06T19:26:22.465Z,15.20
2017-08-06T19:28:51.889Z,15.20
2017-08-06T19:31:20.821Z,15.20
2017-08-06T19:33:49.324Z,15.10
2017-08-06T19:36:17.923Z,15.00
2017-08-06T19:38:47.185Z,14.90
2017-08-06T19:41:16.087Z,14.80
2017-08-06T19:43:44.662Z,14.80
2017-08-06T19:46:13.638Z,14.70
2017-08-06T19:48:42.653Z,14.70
2017-08-06T19:51:11.495Z,14.70
2017-08-06T19:53:40.790Z,14.70
2017-08-06T19:56:09.292Z,14.60
2017-08-06T19:58:37.814Z,14.80
2017-08-06T20:01:06.764Z,14.70
2017-08-06T20:03:35.324Z,14.70
2017-08-06T20:06:04.229Z,14.70
2017-08-06T20:08:33.471Z,14.80
2017-08-06T20:11:02.301Z,14.80
2017-08-06T20:13:31.860Z,14.80
2017-08-06T20:16:00.287Z,14.70
2017-08-06T20:18:28.743Z,14.70
2017-08-06T20:20:57.200Z,14.50
2017-08-06T20:23:25.693Z,14.40
2017-08-06T20:25:54.113Z,14.40
2017-08-06T20:28:23.298Z,14.20
2017-08-06T20:30:52.149Z,14.10
2017-08-06T20:33:20.608Z,14.10
2017-08-06T20:35:50.163Z,14.30
2017-08-06T20:38:18.644Z,14.40
2017-08-06T20:40:47.073Z,14.50
2017-08-06T20:43:15.577Z,14.60
2017-08-06T20:45:44.012Z,14.50
2017-08-06T20:48:12.446Z,14.40
2017-08-06T20:50:40.910Z,14.10
2017-08-06T20:53:09.375Z,13.80
2017-08-06T20:55:37.799Z,13.60
2017-08-06T20:58:06.225Z,13.60
2017-08-06T21:00:34.735Z,13.80
2017-08-06T21:03:03.147Z,13.80
2017-08-06T21:05:32.388Z,13.70
2017-08-06T21:08:01.232Z,13.80
2017-08-06T21:10:30.424Z,13.80
2017-08-06T21:12:59.654Z,13.70
2017-08-06T21:15:28.495Z,13.50
2017-08-06T21:17:57.363Z,13.30
2017-08-06T21:20:26.552Z,13.20
2017-08-06T21:22:54.986Z,13.10
2017-08-06T21:25:23.448Z,13.00
2017-08-06T21:27:51.923Z,13.00
2017-08-06T21:30:20.787Z,13.20
2017-08-06T21:32:49.604Z,13.20
2017-08-06T21:35:19.225Z,13.20
2017-08-06T21:37:48.051Z,13.20
2017-08-06T21:40:16.471Z,13.10
2017-08-06T21:42:44.928Z,13.00
2017-08-06T21:45:13.357Z,13.00
2017-08-06T21:47:42.975Z,13.00
2017-08-06T21:50:12.549Z,13.10
2017-08-06T21:52:41.396Z,13.10
2017-08-06T21:55:10.235Z,13.00
2017-08-06T21:57:42.418Z,12.80
2017-08-06T22:00:11.246Z,12.60
2017-08-06T22:02:40.430Z,12.30
2017-08-06T22:05:08.892Z,12.20
2017-08-06T22:07:37.324Z,12.10
2017-08-06T22:10:05.794Z,12.00
2017-08-06T22:12:34.256Z,11.90
2017-08-06T22:15:02.754Z,11.90
2017-08-06T22:17:32.035Z,11.80
2017-08-06T22:20:00.458Z,11.90
2017-08-06T22:22:28.932Z,12.00
2017-08-06T22:24:57.857Z,12.00
2017-08-06T22:27:26.331Z,12.00
2017-08-06T22:29:55.545Z,11.90
2017-08-06T22:32:24.028Z,11.80
2017-08-06T22:34:52.898Z,11.80
2017-08-06T22:37:21.345Z,11.80
2017-08-06T22:39:50.174Z,11.90
2017-08-06T22:42:19.469Z,12.10
2017-08-06T22:44:48.667Z,12.30
2017-08-06T22:47:17.503Z,12.20
2017-08-06T22:49:46.388Z,12.00
2017-08-06T22:52:14.845Z,11.90
2017-08-06T22:54:43.271Z,12.00
2017-08-06T22:57:12.133Z,11.90
2017-08-06T22:59:42.271Z,11.80
2017-08-06T23:02:10.710Z,12.00
2017-08-06T23:04:39.174Z,12.00
2017-08-06T23:07:07.645Z,12.00
2017-08-06T23:09:36.116Z,12.00
2017-08-06T23:12:04.933Z,11.90
2017-08-06T23:14:33.761Z,11.80
2017-08-06T23:17:02.608Z,11.70
2017-08-06T23:19:31.442Z,11.80
2017-08-06T23:22:00.302Z,11.80
2017-08-06T23:24:29.130Z,11.70
2017-08-06T23:26:57.615Z,11.60
2017-08-06T23:29:26.824Z,11.60
2017-08-06T23:31:55.243Z,11.50
2017-08-06T23:34:24.146Z,11.50
2017-08-06T23:36:53.337Z,11.60
2017-08-06T23:39:22.167Z,11.70
2017-08-06T23:41:50.659Z,11.60
2017-08-06T23:44:19.086Z,11.50
2017-08-06T23:46:47.564Z,11.40
2017-08-06T23:49:16.016Z,11.20
2017-08-06T23:51:44.448Z,11.10
2017-08-06T23:54:12.921Z,11.10
2017-08-06T23:56:41.356Z,11.00
2017-08-06T23:59:10.004Z,11.00
